createdAt,value
2023-02-23T00:01:29.149Z,25.65
2023-02-23T00:03:58.279Z,28.33
2023-02-23T00:06:27.003Z,26.83
2023-02-23T00:08:54.023Z,25.80
2023-02-23T00:11:21.389Z,25.53
2023-02-23T00:13:52.562Z,26.80
2023-02-23T00:16:21.517Z,22.20
2023-02-23T00:18:53.551Z,28.10
2023-02-23T00:21:25.535Z,22.30
2023-02-23T00:23:57.392Z,21.80
2023-02-23T00:26:29.930Z,28.40
2023-02-23T00:28:57.082Z,22.25
2023-02-23T00:31:25.875Z,21.25
2023-02-23T00:33:54.709Z,21.38
2023-02-23T00:36:27.039Z,22.73
2023-02-23T00:38:58.714Z,23.35
2023-02-23T00:41:31.310Z,22.25
2023-02-23T00:43:59.794Z,23.58
2023-02-23T00:46:28.781Z,22.48
2023-02-23T00:48:56.532Z,21.87
2023-02-23T00:51:24.391Z,22.13
2023-02-23T00:53:54.290Z,22.98
2023-02-23T00:56:21.942Z,24.98
2023-02-23T00:58:48.470Z,21.45
2023-02-23T01:01:16.209Z,25.20
2023-02-23T01:03:43.525Z,21.65
2023-02-23T01:06:13.003Z,24.70
2023-02-23T01:08:42.654Z,26.05
2023-02-23T01:11:14.819Z,25.35
2023-02-23T01:13:43.513Z,22.13
2023-02-23T01:16:13.318Z,22.77
2023-02-23T01:18:41.049Z,22.58
2023-02-23T01:21:28.204Z,27.88
2023-02-23T01:23:55.063Z,22.58
2023-02-23T01:26:27.651Z,25.17
2023-02-23T01:28:57.205Z,23.67
2023-02-23T01:31:25.501Z,26.23
2023-02-23T01:33:56.792Z,28.40
2023-02-23T01:36:23.555Z,21.95
2023-02-23T01:38:50.013Z,22.30
2023-02-23T01:41:17.317Z,21.27
2023-02-23T01:43:58.881Z,23.27
2023-02-23T01:46:25.653Z,23.00
2023-02-23T01:48:56.275Z,22.85
2023-02-23T01:51:27.781Z,24.03
2023-02-23T01:54:07.265Z,22.05
2023-02-23T01:56:43.352Z,22.80
2023-02-23T01:59:12.396Z,23.95
2023-02-23T02:01:40.588Z,25.05
2023-02-23T02:04:07.682Z,22.87
2023-02-23T02:06:36.527Z,21.60
2023-02-23T02:09:10.228Z,24.35
2023-02-23T02:11:38.574Z,20.05
2023-02-23T02:14:25.171Z,23.90
2023-02-23T02:17:10.103Z,23.93
2023-02-23T02:19:58.353Z,24.25
2023-02-23T02:22:36.852Z,20.77
2023-02-23T02:25:21.943Z,25.20
2023-02-23T02:28:03.978Z,23.95
2023-02-23T02:30:43.452Z,25.07
2023-02-23T02:33:35.277Z,25.88
2023-02-23T02:36:39.644Z,25.30
2023-02-23T02:39:23.925Z,23.90
2023-02-23T02:42:02.590Z,25.48
2023-02-23T02:44:44.318Z,23.57
2023-02-23T02:47:21.956Z,26.73
2023-02-23T02:49:59.251Z,24.13
2023-02-23T02:52:31.490Z,21.98
2023-02-23T02:55:09.195Z,22.92
2023-02-23T02:57:37.121Z,23.93
2023-02-23T03:00:22.591Z,24.80
2023-02-23T03:03:07.428Z,23.33
2023-02-23T03:06:06.888Z,21.35
2023-02-23T03:09:03.872Z,22.02
2023-02-23T03:11:59.568Z,25.63
2023-02-23T03:14:53.566Z,23.80
2023-02-23T03:17:52.570Z,23.55
2023-02-23T03:20:49.048Z,22.40
2023-02-23T03:23:40.364Z,24.48
2023-02-23T03:26:43.973Z,23.63
2023-02-23T03:29:47.380Z,21.25
2023-02-23T03:32:41.692Z,23.42
2023-02-23T03:35:33.994Z,24.95
2023-02-23T03:38:30.520Z,24.73
2023-02-23T03:41:18.065Z,26.30
2023-02-23T03:44:15.077Z,24.48
2023-02-23T03:47:01.764Z,24.88
2023-02-23T03:49:53.422Z,26.95
2023-02-23T03:52:47.808Z,23.60
2023-02-23T03:55:40.169Z,21.77
2023-02-23T03:58:29.800Z,23.83
2023-02-23T04:01:19.269Z,21.55
2023-02-23T04:04:08.201Z,24.95
2023-02-23T04:06:58.276Z,23.45
2023-02-23T04:09:42.956Z,23.03
2023-02-23T04:12:48.441Z,22.25
2023-02-23T04:15:30.109Z,25.40
2023-02-23T04:17:56.535Z,21.88
2023-02-23T04:20:25.745Z,25.77
2023-02-23T04:22:52.300Z,22.60
2023-02-23T04:25:22.776Z,21.90
2023-02-23T04:27:52.297Z,25.33
2023-02-23T04:30:20.459Z,23.50
2023-02-23T04:32:46.942Z,19.42
2023-02-23T04:35:13.618Z,25.67
2023-02-23T04:37:40.124Z,21.30
2023-02-23T04:40:07.284Z,21.17
2023-02-23T04:42:33.649Z,21.90
2023-02-23T04:45:00.244Z,20.30
2023-02-23T04:47:26.749Z,19.53
2023-02-23T04:49:53.800Z,20.23
2023-02-23T04:52:20.179Z,22.95
2023-02-23T04:54:46.568Z,23.73
2023-02-23T04:57:12.940Z,18.63
2023-02-23T04:59:39.362Z,20.33
2023-02-23T05:02:06.390Z,21.45
2023-02-23T05:04:35.272Z,19.48
2023-02-23T05:07:03.477Z,22.30
2023-02-23T05:09:30.837Z,19.65
2023-02-23T05:11:57.303Z,22.57
2023-02-23T05:14:24.537Z,23.27
2023-02-23T05:16:51.221Z,24.10
2023-02-23T05:19:18.226Z,23.80
2023-02-23T05:21:44.854Z,23.02
2023-02-23T05:24:11.245Z,22.03
2023-02-23T05:26:37.664Z,20.58
2023-02-23T05:29:04.180Z,23.42
2023-02-23T05:31:30.634Z,24.92
2023-02-23T05:33:57.050Z,23.88
2023-02-23T05:36:23.400Z,20.87
2023-02-23T05:38:49.950Z,28.20
2023-02-23T05:41:20.906Z,22.08
2023-02-23T05:43:47.709Z,20.23
2023-02-23T05:46:20.316Z,23.08
2023-02-23T05:48:47.107Z,21.70
2023-02-23T05:51:15.395Z,21.33
2023-02-23T05:53:41.896Z,21.08
2023-02-23T05:56:13.364Z,18.90
2023-02-23T05:58:40.063Z,19.13
2023-02-23T06:01:06.410Z,20.53
2023-02-23T06:03:33.076Z,21.88
2023-02-23T06:05:59.445Z,21.25
2023-02-23T06:08:26.371Z,18.02
2023-02-23T06:10:53.674Z,19.00
2023-02-23T06:13:21.212Z,20.23
2023-02-23T06:15:47.652Z,19.70
2023-02-23T06:18:14.063Z,23.38
2023-02-23T06:20:40.536Z,24.02
2023-02-23T06:23:07.537Z,24.13
2023-02-23T06:25:34.316Z,21.43
2023-02-23T06:28:00.707Z,20.42
2023-02-23T06:30:27.088Z,21.75
2023-02-23T06:32:53.514Z,24.10
2023-02-23T06:35:19.988Z,24.65
2023-02-23T06:37:46.404Z,21.87
2023-02-23T06:40:13.064Z,19.13
2023-02-23T06:42:39.446Z,17.88
2023-02-23T06:45:06.230Z,19.13
2023-02-23T06:47:33.512Z,19.40
2023-02-23T06:49:59.989Z,21.57
2023-02-23T06:52:26.357Z,19.02
2023-02-23T06:54:52.707Z,20.52
2023-02-23T06:57:19.305Z,19.05
2023-02-23T06:59:45.671Z,24.10
2023-02-23T07:02:14.918Z,19.27
2023-02-23T07:04:41.298Z,23.60
2023-02-23T07:07:07.750Z,24.98
2023-02-23T07:09:34.113Z,24.75
2023-02-23T07:12:01.163Z,31.10
2023-02-23T07:14:27.597Z,25.80
2023-02-23T07:16:54.337Z,24.85
2023-02-23T07:19:20.699Z,23.75
2023-02-23T07:21:47.276Z,27.02
2023-02-23T07:24:13.633Z,24.38
2023-02-23T07:26:43.587Z,26.43
2023-02-23T07:29:12.280Z,23.30
2023-02-23T07:31:39.459Z,25.88
2023-02-23T07:34:06.801Z,24.00
2023-02-23T07:36:33.232Z,27.02
2023-02-23T07:38:59.640Z,25.60
2023-02-23T07:41:26.021Z,28.15
2023-02-23T07:43:52.385Z,28.45
2023-02-23T07:46:18.793Z,29.65
2023-02-23T07:48:46.029Z,33.55
2023-02-23T07:51:15.403Z,31.93
2023-02-23T07:53:42.290Z,30.45
2023-02-23T07:56:10.859Z,29.52
2023-02-23T07:58:38.645Z,30.40
2023-02-23T08:01:05.270Z,32.72
2023-02-23T08:03:31.706Z,32.37
2023-02-23T08:05:58.583Z,35.53
2023-02-23T08:08:25.761Z,34.42
2023-02-23T08:10:59.840Z,26.52
2023-02-23T08:13:26.260Z,30.50
2023-02-23T08:15:52.604Z,29.17
2023-02-23T08:18:19.035Z,29.15
2023-02-23T08:20:45.411Z,24.70
2023-02-23T08:23:11.756Z,21.45
2023-02-23T08:25:38.314Z,21.80
2023-02-23T08:28:06.759Z,21.10
2023-02-23T08:30:33.924Z,20.05
2023-02-23T08:33:01.452Z,18.73
2023-02-23T08:35:29.818Z,18.65
2023-02-23T08:37:57.627Z,17.90
2023-02-23T08:40:24.132Z,17.73
2023-02-23T08:42:52.043Z,20.33
2023-02-23T08:45:19.756Z,18.45
2023-02-23T08:47:46.128Z,17.45
2023-02-23T08:50:13.637Z,18.80
2023-02-23T08:52:40.352Z,18.13
2023-02-23T08:55:07.586Z,17.40
2023-02-23T08:57:35.286Z,16.67
2023-02-23T09:00:02.305Z,16.52
2023-02-23T09:02:29.009Z,15.60
2023-02-23T09:04:55.458Z,15.47
2023-02-23T09:07:23.111Z,17.70
2023-02-23T09:09:58.797Z,16.13
2023-02-23T09:12:25.651Z,16.88
2023-02-23T09:14:53.679Z,17.65
2023-02-23T09:17:22.032Z,15.57
2023-02-23T09:19:49.649Z,13.57
2023-02-23T09:22:18.236Z,15.02
2023-02-23T09:24:44.925Z,13.88
2023-02-23T09:27:12.805Z,12.82
2023-02-23T09:29:43.349Z,12.33
2023-02-23T09:32:10.907Z,13.63
2023-02-23T09:34:37.728Z,14.38
2023-02-23T09:37:04.395Z,12.48
2023-02-23T09:39:38.165Z,11.57
2023-02-23T09:42:08.361Z,12.00
2023-02-23T09:45:11.745Z,11.88
2023-02-23T09:47:59.640Z,11.65
2023-02-23T09:50:30.003Z,10.90
2023-02-23T09:53:08.498Z,11.20
2023-02-23T09:55:35.343Z,10.37
2023-02-23T09:58:16.307Z,9.57
2023-02-23T10:00:51.109Z,8.48
2023-02-23T10:03:31.597Z,9.93
2023-02-23T10:06:06.367Z,10.80
2023-02-23T10:08:56.066Z,8.33
2023-02-23T10:11:42.073Z,9.32
2023-02-23T10:14:29.981Z,9.20
2023-02-23T10:17:11.247Z,12.35
2023-02-23T10:19:50.951Z,9.57
2023-02-23T10:22:19.498Z,11.83
2023-02-23T10:24:52.933Z,11.50
2023-02-23T10:27:21.565Z,9.00
2023-02-23T10:29:51.514Z,11.07
2023-02-23T10:32:51.620Z,9.93
2023-02-23T10:35:21.156Z,12.83
2023-02-23T10:37:48.887Z,11.45
2023-02-23T10:40:25.318Z,11.93
2023-02-23T10:42:52.627Z,8.80
2023-02-23T10:45:23.256Z,10.48
2023-02-23T10:48:04.214Z,11.80
2023-02-23T10:50:32.637Z,10.75
2023-02-23T10:53:38.929Z,11.18
2023-02-23T10:56:15.591Z,11.75
2023-02-23T10:58:49.224Z,11.13
2023-02-23T11:01:32.331Z,10.63
2023-02-23T11:04:32.688Z,12.48
2023-02-23T11:07:09.515Z,11.45
2023-02-23T11:09:46.692Z,10.63
2023-02-23T11:12:36.423Z,12.85
2023-02-23T11:15:32.124Z,12.70
2023-02-23T11:18:06.277Z,12.40
2023-02-23T11:20:36.077Z,11.57
2023-02-23T11:23:17.723Z,12.05
2023-02-23T11:25:45.853Z,13.30
2023-02-23T11:28:21.099Z,13.13
2023-02-23T11:30:48.389Z,14.30
2023-02-23T11:33:25.355Z,15.10
2023-02-23T11:35:59.892Z,15.00
2023-02-23T11:38:29.205Z,16.35
2023-02-23T11:41:11.887Z,15.83
2023-02-23T11:43:38.236Z,16.08
2023-02-23T11:46:04.690Z,15.77
2023-02-23T11:48:38.680Z,16.33
2023-02-23T11:51:05.367Z,16.15
2023-02-23T11:53:40.510Z,16.47
2023-02-23T11:56:13.668Z,17.02
2023-02-23T11:59:20.920Z,16.60
2023-02-23T12:01:51.135Z,16.20
2023-02-23T12:04:30.423Z,15.88
2023-02-23T12:07:29.576Z,17.93
2023-02-23T12:10:28.785Z,13.50
2023-02-23T12:13:00.800Z,15.13
2023-02-23T12:15:44.946Z,16.00
2023-02-23T12:18:38.187Z,14.73
2023-02-23T12:21:15.706Z,14.73
2023-02-23T12:23:46.911Z,14.98
2023-02-23T12:26:22.981Z,13.70
2023-02-23T12:29:18.936Z,15.32
2023-02-23T12:32:02.828Z,16.17
2023-02-23T12:34:38.369Z,15.60
2023-02-23T12:37:29.038Z,15.25
2023-02-23T12:40:05.909Z,19.77
2023-02-23T12:42:42.075Z,14.70
2023-02-23T12:45:19.642Z,17.63
2023-02-23T12:48:02.423Z,16.13
2023-02-23T12:50:40.745Z,17.92
2023-02-23T12:53:29.008Z,16.75
2023-02-23T12:56:12.509Z,19.20
2023-02-23T12:58:53.131Z,16.83
2023-02-23T13:01:24.510Z,15.07
2023-02-23T13:04:08.809Z,19.05
2023-02-23T13:06:44.210Z,17.05
2023-02-23T13:09:34.749Z,16.55
2023-02-23T13:12:11.310Z,15.93
2023-02-23T13:14:52.896Z,20.03
2023-02-23T13:17:26.134Z,16.38
2023-02-23T13:19:58.691Z,21.55
2023-02-23T13:22:40.576Z,18.00
2023-02-23T13:25:26.649Z,16.05
2023-02-23T13:27:57.638Z,18.03
2023-02-23T13:30:24.123Z,17.45
2023-02-23T13:32:50.593Z,17.58
2023-02-23T13:35:20.379Z,17.40
2023-02-23T13:38:04.746Z,17.83
2023-02-23T13:40:44.052Z,16.13
2023-02-23T13:43:33.562Z,15.27
2023-02-23T13:46:14.770Z,18.27
2023-02-23T13:49:02.510Z,16.63
2023-02-23T13:51:47.252Z,15.98
2023-02-23T13:54:13.585Z,15.30
2023-02-23T13:56:47.611Z,17.15
2023-02-23T13:59:33.791Z,13.75
2023-02-23T14:02:06.638Z,15.10
2023-02-23T14:04:42.021Z,14.70
2023-02-23T14:07:11.446Z,14.27
2023-02-23T14:09:43.119Z,13.18
2023-02-23T14:12:26.579Z,14.73
2023-02-23T14:14:52.938Z,11.68
2023-02-23T14:17:19.280Z,13.57
2023-02-23T14:20:13.431Z,10.17
2023-02-23T14:23:19.399Z,9.75
2023-02-23T14:25:47.307Z,9.52
2023-02-23T14:28:30.619Z,10.55
2023-02-23T14:31:03.563Z,11.63
2023-02-23T14:33:42.272Z,12.80
2023-02-23T14:36:23.790Z,12.55
2023-02-23T14:38:53.217Z,12.95
2023-02-23T14:41:51.967Z,12.70
2023-02-23T14:44:30.144Z,12.15
2023-02-23T14:47:08.745Z,13.53
2023-02-23T14:49:40.314Z,14.65
2023-02-23T14:52:10.071Z,14.05
2023-02-23T14:54:37.679Z,12.60
2023-02-23T14:57:07.124Z,14.40
2023-02-23T14:59:41.970Z,15.27
2023-02-23T15:02:28.951Z,13.40
2023-02-23T15:04:55.765Z,13.32
2023-02-23T15:07:38.258Z,14.32
2023-02-23T15:10:11.962Z,15.77
2023-02-23T15:12:38.981Z,15.50
2023-02-23T15:15:14.519Z,13.52
2023-02-23T15:17:47.764Z,15.15
2023-02-23T15:20:18.425Z,13.27
2023-02-23T15:22:50.858Z,16.17
2023-02-23T15:25:24.042Z,13.90
2023-02-23T15:27:51.827Z,14.82
2023-02-23T15:30:18.660Z,15.23
2023-02-23T15:32:45.415Z,16.42
2023-02-23T15:35:13.144Z,17.80
2023-02-23T15:37:51.919Z,15.87
2023-02-23T15:40:27.077Z,14.27
2023-02-23T15:42:55.914Z,16.00
2023-02-23T15:45:37.036Z,14.77
2023-02-23T15:48:07.721Z,14.88
2023-02-23T15:50:40.501Z,16.30
2023-02-23T15:53:19.603Z,29.08
2023-02-23T15:55:47.755Z,17.27
2023-02-23T15:58:30.148Z,17.83
2023-02-23T16:00:56.557Z,15.73
2023-02-23T16:03:31.785Z,18.47
2023-02-23T16:06:24.327Z,14.75
2023-02-23T16:08:58.041Z,14.50
2023-02-23T16:11:25.428Z,15.85
2023-02-23T16:13:54.075Z,14.82
2023-02-23T16:16:25.217Z,16.80
2023-02-23T16:18:54.872Z,17.55
2023-02-23T16:21:24.197Z,18.35
2023-02-23T16:23:53.761Z,14.07
2023-02-23T16:26:25.638Z,15.75
2023-02-23T16:28:59.574Z,15.97
2023-02-23T16:31:43.482Z,14.93
2023-02-23T16:34:28.461Z,15.60
2023-02-23T16:36:58.136Z,18.13
2023-02-23T16:39:29.802Z,16.63
2023-02-23T16:41:58.586Z,16.63
2023-02-23T16:44:34.368Z,14.35
2023-02-23T16:47:08.189Z,19.20
2023-02-23T16:49:34.569Z,17.42
2023-02-23T16:52:01.340Z,14.07
2023-02-23T16:54:27.826Z,16.13
2023-02-23T16:56:55.844Z,15.90
2023-02-23T16:59:23.400Z,17.50
2023-02-23T17:01:50.725Z,16.67
2023-02-23T17:04:19.077Z,17.67
2023-02-23T17:06:48.265Z,18.30
2023-02-23T17:09:14.630Z,18.50
2023-02-23T17:11:42.688Z,17.85
2023-02-23T17:14:19.148Z,18.63
2023-02-23T17:16:45.834Z,19.25
2023-02-23T17:19:15.852Z,20.33
2023-02-23T17:21:42.250Z,20.52
2023-02-23T17:24:08.589Z,21.27
2023-02-23T17:26:35.188Z,26.60
2023-02-23T17:29:01.760Z,26.98
2023-02-23T17:31:28.746Z,27.27
2023-02-23T17:33:55.463Z,26.33
2023-02-23T17:36:23.725Z,27.63
2023-02-23T17:38:50.109Z,27.15
2023-02-23T17:41:19.541Z,27.17
2023-02-23T17:43:46.273Z,28.53
2023-02-23T17:46:13.392Z,28.75
2023-02-23T17:48:40.705Z,30.92
2023-02-23T17:51:12.002Z,28.40
2023-02-23T17:53:39.906Z,29.50
2023-02-23T17:56:06.882Z,30.00
2023-02-23T17:58:33.317Z,28.85
2023-02-23T18:01:02.417Z,30.65
2023-02-23T18:03:31.856Z,33.20
2023-02-23T18:06:07.675Z,29.80
2023-02-23T18:08:35.422Z,29.07
2023-02-23T18:11:02.518Z,27.88
2023-02-23T18:13:30.272Z,28.00
2023-02-23T18:16:02.337Z,29.73
2023-02-23T18:18:28.898Z,28.67
2023-02-23T18:20:59.415Z,29.73
2023-02-23T18:23:28.850Z,30.08
2023-02-23T18:25:55.314Z,30.90
2023-02-23T18:28:21.691Z,29.08
2023-02-23T18:30:48.073Z,26.85
2023-02-23T18:33:14.523Z,26.80
2023-02-23T18:35:44.875Z,31.80
2023-02-23T18:38:13.768Z,36.22
2023-02-23T18:40:40.590Z,37.45
2023-02-23T18:43:07.451Z,37.65
2023-02-23T18:45:34.170Z,30.93
2023-02-23T18:48:00.548Z,26.75
2023-02-23T18:50:27.168Z,22.98
2023-02-23T18:52:55.940Z,24.02
2023-02-23T18:55:22.966Z,23.00
2023-02-23T18:57:51.526Z,21.47
2023-02-23T19:00:19.488Z,20.83
2023-02-23T19:02:46.593Z,22.13
2023-02-23T19:05:14.084Z,20.92
2023-02-23T19:07:40.639Z,23.88
2023-02-23T19:10:09.115Z,24.50
2023-02-23T19:12:35.843Z,24.42
2023-02-23T19:15:03.232Z,21.60
2023-02-23T19:17:30.366Z,22.08
2023-02-23T19:19:56.789Z,22.50
2023-02-23T19:22:23.475Z,23.37
2023-02-23T19:24:50.146Z,19.27
2023-02-23T19:27:17.307Z,17.42
2023-02-23T19:29:45.463Z,21.38
2023-02-23T19:32:13.818Z,19.67
2023-02-23T19:34:40.295Z,20.00
2023-02-23T19:37:08.996Z,21.05
2023-02-23T19:39:36.252Z,20.20
2023-02-23T19:42:02.801Z,22.80
2023-02-23T19:44:29.747Z,20.80
2023-02-23T19:46:57.126Z,20.97
2023-02-23T19:49:24.535Z,21.35
2023-02-23T19:51:52.824Z,24.05
2023-02-23T19:54:20.490Z,21.33
2023-02-23T19:56:48.042Z,21.73
2023-02-23T19:59:14.450Z,22.97
2023-02-23T20:01:40.879Z,24.38
2023-02-23T20:04:09.528Z,24.08
2023-02-23T20:06:44.436Z,23.58
2023-02-23T20:09:10.912Z,24.83
2023-02-23T20:11:37.467Z,26.53
2023-02-23T20:14:05.108Z,26.60
2023-02-23T20:16:31.692Z,25.33
2023-02-23T20:18:58.778Z,27.77
2023-02-23T20:21:27.121Z,25.77
2023-02-23T20:23:55.786Z,26.83
2023-02-23T20:26:30.371Z,28.08
2023-02-23T20:28:58.203Z,24.95
2023-02-23T20:31:30.125Z,27.40
2023-02-23T20:33:58.494Z,27.67
2023-02-23T20:36:25.553Z,23.73
2023-02-23T20:38:52.305Z,25.58
2023-02-23T20:41:19.822Z,27.55
2023-02-23T20:43:46.578Z,25.15
2023-02-23T20:46:14.374Z,27.10
2023-02-23T20:48:41.086Z,26.97
2023-02-23T20:51:12.684Z,29.40
2023-02-23T20:53:40.269Z,27.48
2023-02-23T20:56:08.675Z,24.08
2023-02-23T20:58:35.363Z,26.92
2023-02-23T21:01:06.169Z,25.83
2023-02-23T21:03:34.570Z,28.65
2023-02-23T21:06:01.036Z,28.52
2023-02-23T21:08:28.749Z,30.08
2023-02-23T21:10:55.368Z,28.23
2023-02-23T21:13:23.068Z,26.03
2023-02-23T21:15:58.462Z,30.58
2023-02-23T21:18:25.230Z,31.35
2023-02-23T21:20:51.650Z,29.92
2023-02-23T21:23:20.333Z,34.20
2023-02-23T21:25:47.138Z,28.47
2023-02-23T21:28:13.562Z,31.98
2023-02-23T21:30:39.957Z,28.83
2023-02-23T21:33:06.638Z,31.40
2023-02-23T21:35:35.118Z,27.23
2023-02-23T21:38:01.502Z,27.33
2023-02-23T21:40:28.025Z,31.70
2023-02-23T21:42:54.523Z,26.38
2023-02-23T21:45:20.954Z,27.85
2023-02-23T21:47:48.432Z,30.90
2023-02-23T21:50:19.040Z,26.17
2023-02-23T21:52:48.406Z,27.80
2023-02-23T21:55:21.552Z,23.27
2023-02-23T21:57:48.860Z,28.83
2023-02-23T22:00:16.286Z,27.58
2023-02-23T22:02:46.408Z,28.47
2023-02-23T22:05:15.292Z,23.95
2023-02-23T22:07:46.714Z,26.63
2023-02-23T22:10:13.058Z,26.58
2023-02-23T22:12:39.393Z,24.35
2023-02-23T22:15:16.250Z,25.50
2023-02-23T22:17:43.962Z,21.38
2023-02-23T22:20:11.265Z,23.33
2023-02-23T22:22:37.774Z,24.08
2023-02-23T22:25:05.949Z,25.75
2023-02-23T22:27:32.746Z,25.83
2023-02-23T22:30:01.308Z,23.25
2023-02-23T22:32:32.479Z,22.88
2023-02-23T22:35:00.148Z,28.58
2023-02-23T22:37:31.446Z,25.13
2023-02-23T22:40:00.042Z,25.63
2023-02-23T22:42:29.545Z,22.67
2023-02-23T22:44:56.902Z,26.38
2023-02-23T22:47:24.222Z,22.92
2023-02-23T22:49:50.616Z,24.50
2023-02-23T22:52:17.016Z,23.37
2023-02-23T22:54:46.089Z,24.00
2023-02-23T22:57:13.039Z,22.65
2023-02-23T22:59:39.401Z,22.55
2023-02-23T23:02:05.816Z,21.52
2023-02-23T23:04:34.311Z,18.47
2023-02-23T23:07:00.882Z,20.98
2023-02-23T23:09:28.073Z,19.80
2023-02-23T23:11:56.821Z,21.27
2023-02-23T23:14:23.310Z,18.10
2023-02-23T23:16:50.115Z,21.63
2023-02-23T23:19:23.525Z,22.42
2023-02-23T23:21:57.308Z,21.00
2023-02-23T23:24:24.597Z,21.10
2023-02-23T23:26:55.896Z,21.23
2023-02-23T23:29:23.613Z,22.07
2023-02-23T23:31:51.612Z,22.23
2023-02-23T23:34:21.468Z,23.00
2023-02-23T23:36:53.073Z,21.92
2023-02-23T23:39:22.238Z,23.83
2023-02-23T23:41:49.744Z,21.70
2023-02-23T23:44:18.699Z,21.30
2023-02-23T23:46:46.185Z,21.02
2023-02-23T23:49:17.986Z,23.45
2023-02-23T23:51:49.902Z,23.75
2023-02-23T23:54:41.066Z,21.50
2023-02-23T23:57:07.516Z,20.33
2023-02-23T23:59:35.449Z,20.98
